Time;durP1;ratioP1;P1;durP2;ratioP2;P2;SDS_P1;SDS_P2;PMS_P1;PMS_P2;Temp;Humidity;BMP_temperature;BMP_pressure;BME280_temperature;BME280_humidity;BME280_pressure;Samples;Min_cycle;Max_cycle;Signal;HPM_P1;HPM_P2
2022/02/11 00:11:47;;;;;;;19.40;10.00;;;;;;;4.63;100.00;100715.11;3449495;83;98722;-87
2022/02/11 00:16:48;;;;;;;16.33;8.13;;;;;;;4.66;100.00;100705.48;3445453;83;99318;-87
2022/02/11 00:21:48;;;;;;;17.87;8.50;;;;;;;4.67;100.00;100703.78;3449493;83;99348;-87
2022/02/11 00:27:11;;;;;;;17.67;8.03;;;;;;;4.70;100.00;100710.51;3445967;83;99248;-87
2022/02/11 00:37:12;;;;;;;16.52;9.13;;;;;;;4.75;100.00;100711.68;3458151;83;99140;-87
2022/02/11 01:03:21;;;;;;;15.98;8.48;;;;;;;4.86;100.00;100714.25;3455406;81;99250;-87
2022/02/11 01:08:15;;;;;;;23.02;10.50;;;;;;;4.87;100.00;100715.84;3454475;83;99123;-88
2022/02/11 01:13:17;;;;;;;20.77;9.83;;;;;;;4.88;100.00;100714.16;3470505;83;33070;-88
2022/02/11 01:18:18;;;;;;;15.70;9.03;;;;;;;4.88;100.00;100715.52;3473269;83;122791;-88
2022/02/11 01:29:15;;;;;;;16.10;9.37;;;;;;;4.93;100.00;100709.86;3465640;83;99192;-89
2022/02/11 02:25:51;;;;;;;15.60;6.70;;;;;;;4.76;100.00;100677.83;3417273;85;85408;-87
2022/02/11 02:57:22;;;;;;;17.73;8.43;;;;;;;4.78;100.00;100664.65;3406741;85;99282;-87
2022/02/11 03:50:25;;;;;;;13.38;7.10;;;;;;;4.56;100.00;100659.52;3471208;83;99360;-88
2022/02/11 05:03:33;;;;;;;10.50;5.80;;;;;;;4.30;100.00;100643.34;3453311;83;99384;-89
2022/02/11 05:08:34;;;;;;;12.17;6.10;;;;;;;4.29;100.00;100646.39;3464852;83;98916;-89
2022/02/11 05:13:38;;;;;;;13.77;6.63;;;;;;;4.29;100.00;100646.39;3482014;83;99220;-90
2022/02/11 05:18:39;;;;;;;14.50;6.97;;;;;;;4.29;100.00;100649.92;3464527;83;98634;-90
2022/02/11 05:23:40;;;;;;;13.17;6.07;;;;;;;4.27;100.00;100657.61;3466930;83;99113;-89
2022/02/11 05:28:41;;;;;;;13.40;5.73;;;;;;;4.25;100.00;100653.06;3472683;83;99545;-90
2022/02/11 05:33:42;;;;;;;12.47;5.40;;;;;;;4.28;100.00;100665.23;3467516;83;99338;-89
2022/02/11 05:38:43;;;;;;;11.65;5.67;;;;;;;4.24;100.00;100659.64;3465757;83;99214;-89
2022/02/11 05:43:45;;;;;;;14.87;5.30;;;;;;;4.22;100.00;100661.91;3457001;83;99376;-90
2022/02/11 05:48:46;;;;;;;12.40;5.60;;;;;;;4.22;100.00;100657.02;3461743;83;98867;-89
2022/02/11 05:53:47;;;;;;;11.93;6.23;;;;;;;4.18;100.00;100656.88;3467025;83;99107;-90
2022/02/11 05:58:47;;;;;;;12.27;5.87;;;;;;;4.18;100.00;100658.24;3469359;82;99105;-89
2022/02/11 06:03:48;;;;;;;14.83;6.47;;;;;;;4.17;100.00;100658.02;3468715;83;99188;-89
2022/02/11 06:08:49;;;;;;;11.93;5.33;;;;;;;4.18;100.00;100662.88;3466623;83;98881;-89
2022/02/11 06:13:50;;;;;;;10.40;4.73;;;;;;;4.17;100.00;100677.63;3446129;82;98860;-90
2022/02/11 06:18:51;;;;;;;11.23;5.50;;;;;;;4.15;100.00;100675.23;3463854;83;99080;-89
2022/02/11 06:23:55;;;;;;;12.73;5.20;;;;;;;4.16;100.00;100680.91;3470686;83;99215;-90
2022/02/11 06:28:57;;;;;;;14.23;6.00;;;;;;;4.19;100.00;100676.17;3466072;83;99071;-89
2022/02/11 06:33:58;;;;;;;12.33;4.73;;;;;;;4.19;100.00;100670.73;3466490;83;99357;-89
2022/02/11 06:38:59;;;;;;;12.27;5.70;;;;;;;4.20;100.00;100678.35;3435905;83;98903;-89
2022/02/11 06:44:00;;;;;;;16.63;6.43;;;;;;;4.19;100.00;100680.81;3462635;83;99272;-88
2022/02/11 06:49:01;;;;;;;12.13;6.43;;;;;;;4.19;100.00;100688.98;3464613;83;99078;-88
2022/02/11 06:54:02;;;;;;;13.27;6.03;;;;;;;4.17;100.00;100692.06;3459214;83;99074;-93
2022/02/11 06:59:03;;;;;;;12.03;6.17;;;;;;;4.20;100.00;100693.33;3461290;83;99050;-88
2022/02/11 07:04:04;;;;;;;14.73;6.47;;;;;;;4.18;100.00;100701.83;3455534;83;99303;-89
2022/02/11 07:09:05;;;;;;;13.75;6.45;;;;;;;4.19;100.00;100703.41;3449180;82;99368;-88
2022/02/11 07:14:06;;;;;;;15.37;6.87;;;;;;;4.24;100.00;100703.78;3460972;83;99248;-89
2022/02/11 07:19:07;;;;;;;15.27;7.30;;;;;;;4.25;100.00;100704.05;3467297;83;98859;-89
2022/02/11 07:24:08;;;;;;;16.83;7.03;;;;;;;4.27;100.00;100702.56;3436742;83;99166;-88
2022/02/11 07:29:12;;;;;;;15.83;8.50;;;;;;;4.31;100.00;100708.18;3451157;83;99028;-88
2022/02/11 07:34:12;;;;;;;42.13;15.17;;;;;;;4.31;100.00;100710.91;3457758;82;99414;-88
2022/02/11 07:39:13;;;;;;;44.40;19.20;;;;;;;4.27;100.00;100708.59;3467294;83;99282;-86
2022/02/11 07:44:14;;;;;;;92.90;35.23;;;;;;;4.27;100.00;100712.09;3462023;83;99434;-87
2022/02/11 07:49:15;;;;;;;29.43;14.20;;;;;;;4.25;100.00;100717.67;3468018;83;98845;-88
2022/02/11 07:54:15;;;;;;;69.97;26.57;;;;;;;4.24;100.00;100722.30;3466912;82;99232;-88
2022/02/11 07:59:16;;;;;;;50.97;17.20;;;;;;;4.25;100.00;100729.34;3455656;83;99229;-88
2022/02/11 08:04:17;;;;;;;23.43;10.17;;;;;;;4.28;100.00;100738.23;3463756;82;99386;-88
2022/02/11 08:09:18;;;;;;;21.83;10.10;;;;;;;4.27;100.00;100743.42;3463447;83;99524;-88
2022/02/11 08:14:19;;;;;;;20.43;10.23;;;;;;;4.27;100.00;100743.42;3473085;83;99655;-87
2022/02/11 08:19:19;;;;;;;18.00;8.57;;;;;;;4.27;100.00;100752.18;3478191;83;99056;-89
2022/02/11 08:24:20;;;;;;;15.73;9.07;;;;;;;4.30;100.00;100759.13;3472119;83;99062;-90
2022/02/11 08:29:25;;;;;;;19.95;9.80;;;;;;;4.33;100.00;100756.31;3471312;83;99147;-90
2022/02/11 08:34:25;;;;;;;24.37;7.57;;;;;;;4.38;100.00;100752.05;3473741;81;98428;-92
2022/02/11 08:39:26;;;;;;;18.17;8.43;;;;;;;4.37;100.00;100747.73;3454579;83;99275;-90
2022/02/11 08:44:28;;;;;;;17.13;7.53;;;;;;;4.42;100.00;100758.45;3477872;83;99193;-91
2022/02/11 08:49:29;;;;;;;19.67;10.43;;;;;;;4.43;100.00;100758.69;3452344;83;98990;-88
2022/02/11 08:54:30;;;;;;;16.10;7.37;;;;;;;4.42;100.00;100757.87;3468527;83;99124;-87
2022/02/11 08:59:31;;;;;;;19.30;8.20;;;;;;;4.46;100.00;100759.37;3457425;81;98943;-88
2022/02/11 09:04:32;;;;;;;14.90;7.10;;;;;;;4.52;100.00;100768.95;3442378;81;99117;-89
2022/02/11 09:09:34;;;;;;;15.13;7.83;;;;;;;4.56;100.00;100766.63;3453611;82;99022;-88
2022/02/11 09:14:35;;;;;;;16.27;7.43;;;;;;;4.61;100.00;100770.53;3473710;83;99208;-89
2022/02/11 09:19:36;;;;;;;16.50;8.13;;;;;;;4.65;100.00;100774.17;3460189;81;99189;-89
2022/02/11 09:24:37;;;;;;;19.37;10.15;;;;;;;4.66;100.00;100783.98;3442905;83;32253;-89
2022/02/11 09:29:38;;;;;;;20.57;10.80;;;;;;;4.70;100.00;100779.45;3450800;83;99282;-89
2022/02/11 09:34:39;;;;;;;18.60;9.87;;;;;;;4.72;100.00;100789.47;3463553;83;99430;-91
2022/02/11 09:39:40;;;;;;;19.47;8.93;;;;;;;4.72;100.00;100794.11;3470134;83;99089;-92
2022/02/11 09:44:48;;;;;;;18.67;8.70;;;;;;;4.66;100.00;100798.97;3469200;83;99685;-90
2022/02/11 09:49:49;;;;;;;22.17;10.47;;;;;;;4.66;100.00;100804.42;3432980;81;99198;-90
2022/02/11 09:55:31;;;;;;;27.57;11.20;;;;;;;4.68;100.00;100801.34;3450615;83;31808;-88
2022/02/11 09:59:54;;;;;;;28.65;12.10;;;;;;;4.74;100.00;100807.66;3455779;82;99329;-88
2022/02/11 10:04:57;;;;;;;21.13;10.40;;;;;;;4.73;100.00;100811.52;3444066;83;99453;-88
2022/02/11 10:10:02;;;;;;;21.13;11.77;;;;;;;4.74;100.00;100814.47;3447174;83;99215;-89
2022/02/11 10:15:19;;;;;;;24.00;10.43;;;;;;;4.78;100.00;100809.97;3459872;81;99422;-90
2022/02/11 10:20:19;;;;;;;;;;;;;;;4.81;100.00;100812.60;3460420;81;99431;-89
2022/02/11 10:25:22;;;;;;;34.30;11.18;;;;;;;4.77;100.00;100815.19;3469381;83;32816;-90
2022/02/11 10:30:24;;;;;;;26.20;11.30;;;;;;;4.74;100.00;100822.66;3470872;82;99193;-89
2022/02/11 10:35:29;;;;;;;18.87;10.45;;;;;;;4.74;100.00;100825.95;3462577;82;99361;-89
2022/02/11 10:40:32;;;;;;;23.60;11.50;;;;;;;4.75;100.00;100824.83;3459694;83;98509;-87
2022/02/11 10:45:39;;;;;;;29.87;11.57;;;;;;;4.76;100.00;100827.78;3466271;82;99423;-87
2022/02/11 10:50:55;;;;;;;25.27;11.10;;;;;;;4.82;100.00;100845.55;3437742;81;99396;-86
2022/02/11 10:56:00;;;;;;;21.53;11.07;;;;;;;4.82;100.00;100843.64;3447977;83;99407;-87
2022/02/11 11:01:05;;;;;;;28.10;13.73;;;;;;;4.81;100.00;100842.59;3471102;83;98988;-87
2022/02/11 11:06:10;;;;;;;24.73;11.00;;;;;;;4.82;100.00;100846.92;3468152;82;99358;-88
2022/02/11 11:11:12;;;;;;;26.23;11.08;;;;;;;4.84;100.00;100858.28;3440135;83;99214;-89
2022/02/11 11:16:17;;;;;;;20.60;10.25;;;;;;;4.83;100.00;100855.33;3463958;83;99416;-91
2022/02/11 11:21:18;;;;;;;22.60;9.17;;;;;;;4.82;100.00;100864.64;3455760;82;99476;-88
2022/02/11 11:26:19;;;;;;;18.40;10.53;;;;;;;4.79;100.00;100852.46;3460106;83;99423;-89
2022/02/11 11:31:28;;;;;;;18.93;10.37;;;;;;;4.77;100.00;100868.91;3468549;82;99134;-89
2022/02/11 11:36:33;;;;;;;25.90;9.63;;;;;;;4.77;100.00;100868.91;3466027;83;99551;-89
2022/02/11 11:41:35;;;;;;;17.57;7.30;;;;;;;4.81;100.00;100872.59;3454771;83;99005;-89
2022/02/11 11:46:38;;;;;;;16.73;7.70;;;;;;;4.84;100.00;100871.92;3472760;83;99517;-89
2022/02/11 11:51:47;;;;;;;19.07;7.53;;;;;;;4.87;100.00;100880.82;3470414;83;99295;-90
2022/02/11 11:57:05;;;;;;;16.67;7.00;;;;;;;4.96;100.00;100882.95;3467178;83;99303;-91
2022/02/11 12:02:20;;;;;;;19.13;7.33;;;;;;;5.06;100.00;100882.00;3473540;83;99205;-92
2022/02/11 12:07:29;;;;;;;15.97;6.90;;;;;;;5.16;100.00;100886.28;3464114;83;98774;-91
2022/02/11 12:12:36;;;;;;;15.05;7.20;;;;;;;5.19;100.00;100893.82;3466284;83;98635;-92
2022/02/11 12:17:37;;;;;;;12.37;6.12;;;;;;;5.25;100.00;100900.09;3458906;82;98812;-92
2022/02/11 12:22:39;;;;;;;14.43;5.00;;;;;;;5.22;100.00;100891.77;3462105;82;99372;-93
2022/02/11 12:27:48;;;;;;;14.93;5.90;;;;;;;5.26;100.00;100892.72;3460567;83;99215;-94
2022/02/11 12:32:57;;;;;;;9.10;3.30;;;;;;;5.30;100.00;100897.18;3489625;82;99195;-88
2022/02/11 12:38:01;;;;;;;9.08;1.82;;;;;;;5.30;100.00;100918.23;3451378;83;99118;-92
2022/02/11 12:43:09;;;;;;;10.63;3.07;;;;;;;5.09;100.00;100909.19;3432940;83;25961;-91
2022/02/11 12:48:14;;;;;;;16.73;3.77;;;;;;;4.98;100.00;100916.96;3456956;83;99155;-92
2022/02/11 12:53:18;;;;;;;14.20;5.57;;;;;;;5.03;100.00;100919.48;3445679;83;99242;-91
2022/02/11 12:58:21;;;;;;;19.45;6.62;;;;;;;5.14;100.00;100922.66;3462005;82;99322;-90
2022/02/11 13:03:22;;;;;;;14.90;6.97;;;;;;;5.07;100.00;100900.55;3476642;83;99271;-90
2022/02/11 13:08:29;;;;;;;15.40;6.40;;;;;;;5.28;100.00;100921.28;3463873;83;99096;-89
2022/02/11 13:13:30;;;;;;;19.47;6.17;;;;;;;5.35;100.00;100931.11;3459294;83;26503;-88
2022/02/11 13:18:40;;;;;;;14.80;6.77;;;;;;;5.35;100.00;100935.78;3463531;82;98885;-90
2022/02/11 13:23:42;;;;;;;15.40;6.10;;;;;;;5.35;100.00;100936.56;3464401;83;99074;-89
2022/02/11 13:28:48;;;;;;;14.60;5.80;;;;;;;5.35;100.00;100945.34;3465965;83;98893;-88
2022/02/11 13:34:05;;;;;;;13.88;6.53;;;;;;;5.35;100.00;100954.89;3458774;83;99238;-89
2022/02/11 13:39:06;;;;;;;;;;;;;;;5.37;100.00;100965.72;3467573;83;98962;-91
2022/02/11 13:44:13;;;;;;;13.43;6.27;;;;;;;5.37;100.00;100961.63;3457501;83;85342;-92
2022/02/11 13:49:16;;;;;;;17.67;5.43;;;;;;;5.37;100.00;100971.17;3452669;83;98539;-91
2022/02/11 13:54:20;;;;;;;18.70;5.90;;;;;;;5.32;100.00;100972.72;3448136;83;99120;-89
2022/02/11 13:59:34;;;;;;;15.70;5.50;;;;;;;5.36;99.79;100984.56;3429277;83;99295;-89
2022/02/11 14:04:33;;;;;;;16.20;5.63;;;;;;;5.29;99.65;100985.64;3467281;83;98972;-89
2022/02/11 14:09:38;;;;;;;14.13;5.60;;;;;;;5.25;99.49;100995.61;3470230;83;98895;-90
2022/02/11 14:15:02;;;;;;;20.88;6.50;;;;;;;5.18;99.77;100998.64;3475787;83;99083;-88
2022/02/11 14:20:04;;;;;;;16.67;6.70;;;;;;;5.12;98.58;100996.63;3458594;83;99142;-90
2022/02/11 14:25:06;;;;;;;11.63;4.07;;;;;;;5.08;99.17;101011.27;3479027;83;26405;-89
2022/02/11 14:30:09;;;;;;;10.93;4.80;;;;;;;5.00;99.20;101007.98;3471300;83;98954;-91
2022/02/11 14:35:10;;;;;;;14.67;4.90;;;;;;;4.88;99.41;101031.05;3472002;83;98812;-90
2022/02/11 14:40:12;;;;;;;9.47;3.60;;;;;;;4.78;99.35;101034.11;3465163;83;99002;-86
2022/02/11 14:45:13;;;;;;;13.30;3.67;;;;;;;4.61;98.57;101043.13;3473592;83;98490;-90
2022/02/11 14:50:16;;;;;;;14.13;4.80;;;;;;;4.49;99.16;101047.08;3460762;83;99103;-91
2022/02/11 14:55:17;;;;;;;16.67;4.33;;;;;;;4.37;99.09;101057.01;3475493;83;28498;-86
2022/02/11 15:00:19;;;;;;;12.87;4.17;;;;;;;4.28;98.99;101058.91;3467925;83;98535;-91
2022/02/11 15:05:23;;;;;;;9.17;3.37;;;;;;;4.15;98.91;101066.69;3473929;83;98981;-89
2022/02/11 15:10:24;;;;;;;16.60;5.80;;;;;;;4.02;98.98;101067.06;3462687;83;98610;-90
2022/02/11 15:15:29;;;;;;;20.27;7.30;;;;;;;3.92;99.14;101071.44;3471494;83;99212;-89
2022/02/11 15:20:28;;;;;;;14.80;6.03;;;;;;;3.87;99.28;101073.52;3466625;83;98522;-91
2022/02/11 15:25:30;;;;;;;13.47;5.43;;;;;;;3.79;99.65;101072.92;3492533;83;31647;-90
2022/02/11 15:30:33;;;;;;;13.37;5.97;;;;;;;3.71;99.75;101074.50;3456253;83;99012;-90
2022/02/11 15:35:34;;;;;;;13.30;4.93;;;;;;;3.68;100.00;101084.67;3468065;83;98991;-90
2022/02/11 15:40:35;;;;;;;11.43;4.67;;;;;;;3.65;100.00;101098.91;3462228;83;98923;-92
2022/02/11 15:45:36;;;;;;;12.80;6.13;;;;;;;3.65;100.00;101102.20;3468410;83;99230;-95
2022/02/11 15:50:43;;;;;;;20.27;8.33;;;;;;;3.62;100.00;101100.91;3473010;83;99221;-94
2022/02/11 15:55:47;;;;;;;15.33;7.10;;;;;;;3.62;100.00;101112.34;3479193;83;31751;-95
2022/02/11 16:00:50;;;;;;;12.90;7.10;;;;;;;3.62;100.00;101117.23;3479983;82;98750;-95
2022/02/11 16:05:56;;;;;;;21.10;7.80;;;;;;;3.63;100.00;101126.19;3479239;83;98409;-95
2022/02/11 16:10:57;;;;;;;22.35;8.45;;;;;;;3.64;100.00;101135.41;3459405;83;98870;-94
2022/02/11 16:15:59;;;;;;;14.43;6.40;;;;;;;3.64;100.00;101139.48;3481282;81;99314;-96
2022/02/11 16:26:56;;;;;;;13.68;6.90;;;;;;;3.63;100.00;101165.66;3115891;92;30636;-96
2022/02/11 16:38:08;;;;;;;19.70;6.85;;;;;;;3.59;100.00;101181.81;3011855;91;99219;-95
2022/02/11 16:49:45;;;;;;;;;;;;;;;;;;;;;
2022/02/11 17:00:23;;;;;;;20.45;7.87;;;;;;;3.54;100.00;101205.08;3136486;90;99107;-92
2022/02/11 17:06:32;;;;;;;16.37;7.13;;;;;;;3.52;100.00;101220.92;3096849;93;99582;-94
2022/02/11 17:11:29;;;;;;;15.85;8.18;;;;;;;3.51;100.00;101227.48;3129300;88;99656;-90
2022/02/11 17:16:34;;;;;;;19.40;8.40;;;;;;;3.49;100.00;101234.34;3293257;84;98492;-91
2022/02/11 17:21:37;;;;;;;17.27;7.35;;;;;;;3.47;100.00;101242.81;3419225;82;98408;-90
2022/02/11 17:26:38;;;;;;;19.30;7.37;;;;;;;3.45;100.00;101245.02;3437188;84;99155;-89
2022/02/11 17:31:41;;;;;;;19.33;6.93;;;;;;;3.43;100.00;101255.42;3471960;83;99177;-90
2022/02/11 17:36:42;;;;;;;19.00;7.65;;;;;;;3.42;100.00;101257.09;3478785;82;99218;-88
2022/02/11 17:41:43;;;;;;;18.53;8.23;;;;;;;3.39;100.00;101266.67;3522093;81;99299;-91
2022/02/11 17:46:44;;;;;;;23.20;8.60;;;;;;;3.36;100.00;101269.20;3508333;82;99217;-91
2022/02/11 17:51:48;;;;;;;15.93;6.60;;;;;;;3.32;100.00;101281.27;3533538;81;31462;-91
2022/02/11 17:56:51;;;;;;;17.32;8.05;;;;;;;3.28;100.00;101281.63;3535507;81;99120;-90
2022/02/11 18:01:54;;;;;;;19.25;8.53;;;;;;;3.26;100.00;101293.38;3520428;82;98394;-89
2022/02/11 18:06:55;;;;;;;22.58;8.75;;;;;;;3.24;100.00;101299.70;3535388;82;99340;-90
2022/02/11 18:11:56;;;;;;;18.47;8.47;;;;;;;3.22;100.00;101318.22;3549027;82;99213;-91
2022/02/11 18:16:57;;;;;;;23.10;9.20;;;;;;;3.19;100.00;101315.31;3535635;82;99294;-90
2022/02/11 18:21:58;;;;;;;21.00;8.87;;;;;;;3.17;100.00;101322.98;3542980;81;31425;-92
2022/02/11 18:26:59;;;;;;;23.43;9.87;;;;;;;3.13;100.00;101336.39;3507424;82;99056;-91
2022/02/11 18:32:08;;;;;;;18.07;9.90;;;;;;;3.10;100.00;101347.05;3539602;81;99129;-91
2022/02/11 18:37:09;;;;;;;16.23;9.45;;;;;;;3.07;100.00;101347.68;3535983;82;99305;-91
2022/02/11 18:42:10;;;;;;;23.30;10.10;;;;;;;3.03;100.00;101360.27;3514205;81;98832;-90
2022/02/11 18:48:11;;;;;;;23.23;11.10;;;;;;;3.00;100.00;101364.97;3513552;81;99363;-91
2022/02/11 18:53:17;;;;;;;22.10;10.05;;;;;;;2.95;100.00;101369.16;3522404;81;98956;-93
2022/02/11 18:58:18;;;;;;;18.95;9.40;;;;;;;2.91;100.00;101373.58;3534890;81;99134;-94
2022/02/11 19:03:20;;;;;;;20.50;10.40;;;;;;;2.86;100.00;101379.94;3542383;81;99067;-89
2022/02/11 19:08:23;;;;;;;21.10;9.83;;;;;;;2.82;100.00;101388.98;3538249;81;99407;-90
2022/02/11 19:13:25;;;;;;;21.47;10.73;;;;;;;2.78;100.00;101397.51;3544566;81;99342;-90
2022/02/11 19:18:26;;;;;;;24.90;10.68;;;;;;;2.74;100.00;101403.28;3516309;82;99431;-88
2022/02/11 19:23:27;;;;;;;21.67;9.50;;;;;;;2.73;100.00;101406.55;3513596;82;99355;-90
2022/02/11 19:28:28;;;;;;;22.87;11.63;;;;;;;2.62;100.00;101400.27;3480589;82;98811;-91
2022/02/11 19:33:31;;;;;;;26.43;12.20;;;;;;;2.78;100.00;101431.48;3522186;82;99131;-91
2022/02/11 19:38:34;;;;;;;26.47;11.40;;;;;;;2.84;100.00;101438.44;3501916;82;99304;-87
2022/02/11 19:43:34;;;;;;;15.18;7.25;;;;;;;2.89;100.00;101450.00;3540660;81;99318;-88
2022/02/11 19:48:38;;;;;;;15.90;7.95;;;;;;;2.92;100.00;101462.19;3531708;82;99180;-85
2022/02/11 19:53:42;;;;;;;13.70;7.05;;;;;;;2.90;100.00;101480.73;3539264;82;97945;-86
2022/02/11 19:58:42;;;;;;;14.90;7.15;;;;;;;2.88;100.00;101481.56;3522105;82;99282;-84
2022/02/11 20:03:45;;;;;;;20.73;8.07;;;;;;;2.88;100.00;101492.44;3512438;82;31943;-85
2022/02/11 20:08:48;;;;;;;15.25;7.28;;;;;;;2.88;100.00;101515.00;3488467;83;98934;-87
2022/02/11 20:13:51;;;;;;;15.40;6.65;;;;;;;2.89;100.00;101522.05;3484184;83;99183;-85
2022/02/11 20:18:53;;;;;;;13.65;6.50;;;;;;;2.90;100.00;101526.38;3482882;82;98897;-87
2022/02/11 20:23:55;;;;;;;15.38;5.72;;;;;;;2.90;100.00;101548.13;3505837;82;99250;-87
2022/02/11 20:28:57;;;;;;;13.25;5.40;;;;;;;2.89;100.00;101548.45;3524877;81;99226;-86
2022/02/11 20:33:58;;;;;;;13.20;5.47;;;;;;;2.88;100.00;101561.77;3537970;82;31402;-88
2022/02/11 20:39:03;;;;;;;16.00;7.08;;;;;;;2.86;100.00;101578.94;3529320;81;99044;-86
2022/02/11 20:44:05;;;;;;;18.90;7.60;;;;;;;2.85;100.00;101581.41;3554406;81;99007;-86
2022/02/11 20:49:06;;;;;;;13.72;4.92;;;;;;;2.83;100.00;101595.30;3437355;82;99272;-86
2022/02/11 20:54:07;;;;;;;13.03;5.13;;;;;;;2.83;100.00;101602.09;3471197;83;99306;-86
2022/02/11 20:59:08;;;;;;;12.05;4.28;;;;;;;2.80;100.00;101625.78;3544158;81;99244;-85
2022/02/11 21:04:10;;;;;;;13.97;6.13;;;;;;;2.79;100.00;101636.40;3491264;83;31599;-84
2022/02/11 21:09:13;;;;;;;19.00;6.28;;;;;;;2.75;100.00;101644.09;3530930;82;99106;-87
2022/02/11 21:14:14;;;;;;;14.30;5.25;;;;;;;2.69;100.00;101663.73;3548347;82;99090;-85
2022/02/11 21:19:16;;;;;;;12.83;4.60;;;;;;;2.63;100.00;101677.14;3550049;81;99155;-84
2022/02/11 21:24:19;;;;;;;16.02;4.47;;;;;;;2.54;100.00;101697.95;3546075;81;99294;-86
2022/02/11 21:29:20;;;;;;;11.60;3.92;;;;;;;2.45;100.00;101709.73;3542013;81;98930;-86
2022/02/11 21:34:21;;;;;;;10.47;3.80;;;;;;;2.35;100.00;101718.05;3543765;80;31444;-86
2022/02/11 21:39:22;;;;;;;11.50;4.07;;;;;;;2.26;100.00;101724.67;3541908;81;99044;-86
2022/02/11 21:44:23;;;;;;;12.63;4.33;;;;;;;2.17;100.00;101731.84;3553816;82;99063;-89
2022/02/11 21:49:24;;;;;;;10.50;3.53;;;;;;;2.09;100.00;101741.95;3545115;81;99154;-88
2022/02/11 21:54:25;;;;;;;8.80;3.10;;;;;;;2.03;100.00;101753.19;3521492;81;99226;-89
2022/02/11 21:59:27;;;;;;;12.23;4.70;;;;;;;1.94;100.00;101763.05;3457246;82;99043;-87
2022/02/11 22:04:28;;;;;;;8.07;3.23;;;;;;;1.87;100.00;101781.02;3522989;82;31488;-87
2022/02/11 22:09:31;;;;;;;11.43;4.30;;;;;;;1.78;100.00;101788.19;3535399;81;98803;-88
2022/02/11 22:14:33;;;;;;;10.30;3.00;;;;;;;1.70;100.00;101804.27;3545385;81;99060;-89
2022/02/11 22:19:34;;;;;;;11.63;4.10;;;;;;;1.62;100.00;101804.34;3535213;81;99143;-86
2022/02/11 22:24:34;;;;;;;10.53;3.37;;;;;;;1.55;100.00;101808.47;3512484;82;99207;-86
2022/02/11 22:29:36;;;;;;;12.47;3.10;;;;;;;1.48;100.00;101818.27;3527462;81;99271;-88
2022/02/11 22:34:36;;;;;;;14.50;3.43;;;;;;;1.43;100.00;101817.52;3532606;82;99123;-90
2022/02/11 22:39:38;;;;;;;13.23;3.37;;;;;;;1.37;100.00;101824.87;3534596;82;98752;-86
2022/02/11 22:44:39;;;;;;;11.53;3.17;;;;;;;1.12;100.00;101814.73;3547960;81;99224;-90
2022/02/11 22:55:05;;;;;;;11.05;2.87;;;;;;;1.15;100.00;101841.30;3541772;81;99304;-91
2022/02/11 23:00:14;;;;;;;10.67;3.13;;;;;;;1.07;100.00;101844.59;3516414;81;99106;-91
2022/02/11 23:10:45;;;;;;;10.10;2.98;;;;;;;0.92;100.00;101863.10;3472338;82;98868;-93
2022/02/11 23:16:02;;;;;;;;;;;;;;;;;;;;;
2022/02/11 23:20:58;;;;;;;13.28;3.98;;;;;;;0.80;100.00;101884.83;3489829;81;98655;-93
2022/02/11 23:26:16;;;;;;;11.40;3.33;;;;;;;0.73;100.00;101891.89;3511649;81;99004;-93
2022/02/11 23:31:28;;;;;;;13.40;3.67;;;;;;;0.69;100.00;101900.86;3409383;82;98838;-93
2022/02/11 23:36:31;;;;;;;12.00;3.90;;;;;;;0.61;100.00;101910.35;3527305;82;99217;-92
2022/02/11 23:41:36;;;;;;;14.10;3.35;;;;;;;0.54;100.00;101908.48;3481156;82;98849;-91
2022/02/11 23:46:37;;;;;;;8.08;2.77;;;;;;;0.47;100.00;101912.56;3516121;81;32251;-91
2022/02/11 23:51:38;;;;;;;8.93;3.17;;;;;;;0.42;100.00;101922.88;3513203;81;98713;-91
2022/02/11 23:56:40;;;;;;;14.13;3.60;;;;;;;0.38;100.00;101918.25;3492541;82;98769;-91
